Time;durP1;ratioP1;P1;durP2;ratioP2;P2;SDS_P1;SDS_P2;PMS_P1;PMS_P2;Temp;Humidity;BMP_temperature;BMP_pressure;BME280_temperature;BME280_humidity;BME280_pressure;Samples;Min_cycle;Max_cycle;Signal;HPM_P1;HPM_P2
2023/04/13 00:00:36;;;;;;;1.37;0.90;;;;;;;11.12;47.58;98194.66;6126193;23;20491;-92
2023/04/13 00:03:04;;;;;;;2.00;1.13;;;;;;;11.03;47.66;98187.44;6125672;23;20158;-91
2023/04/13 00:05:33;;;;;;;2.37;0.80;;;;;;;11.13;46.90;98190.25;6125909;23;20192;-92
2023/04/13 00:08:02;;;;;;;2.40;1.00;;;;;;;11.22;46.26;98187.81;6100113;23;20156;-92
2023/04/13 00:10:34;;;;;;;1.37;0.67;;;;;;;11.34;45.93;98186.97;6125853;23;20611;-91
2023/04/13 00:13:03;;;;;;;3.03;1.10;;;;;;;11.21;46.29;98190.56;6125811;23;20517;-92
2023/04/13 00:15:33;;;;;;;2.20;0.87;;;;;;;10.86;46.62;98187.75;6100259;23;20180;-91
2023/04/13 00:18:00;;;;;;;1.77;0.70;;;;;;;10.72;45.68;98183.44;6125541;23;20155;-91
2023/04/13 00:20:27;;;;;;;3.97;0.80;;;;;;;10.78;45.10;98187.44;6125824;23;20159;-91
2023/04/13 00:22:55;;;;;;;1.70;0.87;;;;;;;10.81;44.33;98197.72;6125857;23;20151;-91
2023/04/13 00:25:22;;;;;;;2.50;0.70;;;;;;;11.18;44.91;98191.63;6125740;23;20218;-92
2023/04/13 00:27:52;;;;;;;2.23;0.70;;;;;;;11.53;44.06;98194.38;6125879;23;20148;-92
2023/04/13 00:30:20;;;;;;;2.23;0.90;;;;;;;11.71;43.91;98199.16;6125951;23;20152;-92
2023/04/13 00:32:48;;;;;;;1.77;1.00;;;;;;;11.91;43.37;98196.88;6125751;23;20152;-92
2023/04/13 00:35:23;;;;;;;6.53;0.80;;;;;;;12.00;43.75;98212.81;6099905;23;20259;-92
2023/04/13 00:37:53;;;;;;;1.70;0.83;;;;;;;12.00;43.34;98212.00;6126272;23;20200;-92
2023/04/13 00:40:19;;;;;;;2.60;0.90;;;;;;;12.06;43.51;98208.91;6125839;23;20596;-92
2023/04/13 00:42:48;;;;;;;2.80;1.27;;;;;;;11.97;43.07;98204.31;6125691;23;20176;-92
2023/04/13 00:45:18;;;;;;;0.63;0.37;;;;;;;11.91;43.15;98207.38;6100825;23;20156;-91
2023/04/13 00:47:47;;;;;;;4.33;1.03;;;;;;;11.84;42.78;98195.66;6125963;23;20137;-92
2023/04/13 00:50:19;;;;;;;3.90;1.67;;;;;;;11.94;42.19;98201.91;6125780;23;20157;-91
2023/04/13 00:52:49;;;;;;;4.43;1.10;;;;;;;11.79;42.43;98198.63;6100043;23;20160;-91
2023/04/13 00:55:19;;;;;;;2.67;0.63;;;;;;;11.82;42.51;98200.19;6125479;23;20177;-92
2023/04/13 00:57:48;;;;;;;2.23;0.67;;;;;;;11.85;42.13;98207.81;6100244;23;20156;-91
2023/04/13 01:00:20;;;;;;;1.30;0.63;;;;;;;11.79;42.29;98203.03;6100164;23;20162;-92
2023/04/13 01:02:47;;;;;;;1.67;0.83;;;;;;;11.85;42.14;98208.66;6125799;23;20246;-91
2023/04/13 01:05:15;;;;;;;1.20;0.63;;;;;;;11.83;41.67;98215.81;6127035;23;20247;-91
2023/04/13 01:08:10;;;;;;;1.67;0.60;;;;;;;11.90;41.96;98216.22;6101646;23;20302;-91
2023/04/13 01:11:25;;;;;;;1.87;0.90;;;;;;;11.95;41.31;98222.00;6127546;23;20140;-91
2023/04/13 01:14:36;;;;;;;2.17;0.60;;;;;;;12.13;41.21;98218.03;6120882;23;20188;-92
2023/04/13 01:17:28;;;;;;;1.20;0.60;;;;;;;12.20;41.05;98221.88;6127227;23;20146;-92
2023/04/13 01:20:09;;;;;;;0.90;0.43;;;;;;;12.27;40.99;98216.03;6127451;23;20170;-92
2023/04/13 01:22:40;;;;;;;7.57;1.80;;;;;;;12.18;41.74;98226.41;6101918;23;20157;-92
2023/04/13 01:25:17;;;;;;;3.13;1.00;;;;;;;12.13;42.07;98220.66;6127464;23;20133;-92
2023/04/13 01:27:58;;;;;;;6.73;1.10;;;;;;;11.97;42.38;98227.97;6127701;23;20145;-92
2023/04/13 01:30:27;;;;;;;20.80;4.63;;;;;;;11.90;42.79;98239.84;6127601;23;20137;-93
2023/04/13 01:32:54;;;;;;;4.27;1.20;;;;;;;11.78;43.71;98243.34;6101841;23;20160;-93
2023/04/13 01:35:22;;;;;;;21.30;4.07;;;;;;;11.68;43.63;98248.41;6127319;23;20177;-92
2023/04/13 01:37:51;;;;;;;7.30;1.33;;;;;;;11.53;44.43;98245.06;6127258;23;20207;-91
2023/04/13 01:40:20;;;;;;;1.57;0.77;;;;;;;11.50;44.22;98250.50;6127649;23;20155;-92
2023/04/13 01:42:47;;;;;;;1.67;0.80;;;;;;;11.46;43.90;98243.81;6127169;23;20163;-92
2023/04/13 01:45:26;;;;;;;1.73;0.90;;;;;;;11.36;43.58;98236.69;6101357;23;20171;-92
2023/04/13 01:48:14;;;;;;;1.70;0.70;;;;;;;11.51;42.53;98241.72;6127351;23;20145;-92
2023/04/13 01:50:47;;;;;;;4.07;1.00;;;;;;;11.38;42.40;98240.88;6101584;23;20207;-92
2023/04/13 01:53:21;;;;;;;1.13;0.53;;;;;;;11.28;42.19;98234.63;6126977;23;20137;-92
2023/04/13 01:55:48;;;;;;;2.73;0.80;;;;;;;11.28;41.99;98231.16;6127044;23;20172;-93
2023/04/13 01:58:18;;;;;;;1.53;0.60;;;;;;;11.44;41.68;98235.22;6127104;23;20152;-92
2023/04/13 02:00:45;;;;;;;2.70;1.23;;;;;;;11.49;41.27;98232.28;6127261;23;20186;-92
2023/04/13 02:03:14;;;;;;;1.07;0.50;;;;;;;11.60;41.26;98232.34;6101469;23;20611;-92
2023/04/13 02:05:41;;;;;;;3.03;1.00;;;;;;;11.84;40.71;98229.81;6101539;23;20153;-92
2023/04/13 02:08:08;;;;;;;2.40;0.73;;;;;;;12.06;39.45;98222.03;6127204;23;20152;-93
2023/04/13 02:10:36;;;;;;;1.83;0.60;;;;;;;12.15;39.29;98219.59;6127085;23;20588;-92
2023/04/13 02:13:03;;;;;;;3.90;0.90;;;;;;;12.23;38.91;98221.66;6126765;23;20232;-92
2023/04/13 02:15:33;;;;;;;1.17;0.67;;;;;;;12.26;39.05;98218.78;6126955;23;20597;-92
2023/04/13 02:18:00;;;;;;;1.50;0.50;;;;;;;12.15;39.03;98222.22;6101466;23;20174;-92
2023/04/13 02:20:29;;;;;;;1.33;0.73;;;;;;;12.16;39.09;98223.03;6127352;23;20153;-92
2023/04/13 02:22:56;;;;;;;1.23;0.60;;;;;;;12.07;39.05;98226.34;6101862;23;20233;-91
2023/04/13 02:25:24;;;;;;;4.27;1.17;;;;;;;12.11;38.88;98230.41;6125970;23;20148;-93
2023/04/13 02:27:51;;;;;;;1.30;0.60;;;;;;;12.25;39.33;98238.13;6098302;23;20154;-91
2023/04/13 02:30:18;;;;;;;4.50;1.00;;;;;;;12.28;41.50;98244.00;6126577;23;20307;-92
2023/04/13 02:32:48;;;;;;;3.93;1.97;;;;;;;12.14;42.45;98253.81;6126803;23;20161;-92
2023/04/13 02:35:15;;;;;;;4.20;1.80;;;;;;;12.15;42.42;98245.00;6077305;23;20589;-93
2023/04/13 02:37:41;;;;;;;3.27;1.30;;;;;;;12.07;42.59;98271.00;6126796;23;20262;-93
2023/04/13 02:40:11;;;;;;;1.97;1.10;;;;;;;11.99;42.09;98258.41;6126947;23;20459;-93
2023/04/13 02:42:41;;;;;;;2.97;1.13;;;;;;;11.89;42.49;98257.41;6127227;23;20597;-93
2023/04/13 02:45:12;;;;;;;1.93;0.87;;;;;;;11.75;43.06;98261.94;6126694;23;20154;-93
2023/04/13 02:47:39;;;;;;;1.93;1.27;;;;;;;11.44;43.83;98261.47;6127108;23;20133;-93
2023/04/13 02:50:06;;;;;;;4.83;1.60;;;;;;;11.37;43.79;98259.38;6126579;23;20235;-93
2023/04/13 02:52:33;;;;;;;3.87;1.13;;;;;;;11.58;43.35;98260.50;6126431;23;20598;-93
2023/04/13 02:54:59;;;;;;;2.70;1.03;;;;;;;11.50;43.03;98261.00;6100953;23;20263;-93
2023/04/13 02:57:26;;;;;;;1.87;0.90;;;;;;;11.24;44.53;98263.78;6101007;23;20171;-92
2023/04/13 02:59:53;;;;;;;5.70;1.27;;;;;;;11.15;44.73;98265.25;6101098;23;20168;-92
2023/04/13 03:02:20;;;;;;;2.43;0.90;;;;;;;10.91;45.36;98273.00;6100992;23;20156;-92
2023/04/13 03:04:47;;;;;;;2.43;1.10;;;;;;;10.71;45.42;98270.91;6100720;23;20207;-92
2023/04/13 03:07:16;;;;;;;3.43;1.10;;;;;;;10.66;45.40;98274.75;6100894;23;20167;-92
2023/04/13 03:09:43;;;;;;;2.80;0.70;;;;;;;10.57;46.06;98283.22;6126574;23;20483;-92
2023/04/13 03:12:10;;;;;;;5.13;1.37;;;;;;;10.58;45.87;98287.53;6126418;23;20147;-92
2023/04/13 03:14:36;;;;;;;5.83;1.83;;;;;;;10.47;46.41;98289.09;6126229;23;20343;-92
2023/04/13 03:17:03;;;;;;;3.47;1.67;;;;;;;10.38;46.72;98284.44;6126149;23;20155;-92
2023/04/13 03:19:30;;;;;;;6.23;2.53;;;;;;;10.31;47.05;98282.31;6100805;23;20170;-92
2023/04/13 03:21:57;;;;;;;4.80;2.33;;;;;;;10.31;46.87;98283.16;6126695;23;20148;-92
2023/04/13 03:24:26;;;;;;;3.73;1.53;;;;;;;10.13;47.74;98280.88;6126147;23;20172;-92
2023/04/13 03:26:55;;;;;;;2.63;1.40;;;;;;;10.01;47.81;98290.31;6125283;23;20171;-92
2023/04/13 03:29:23;;;;;;;5.23;1.60;;;;;;;9.98;47.98;98289.69;6076751;23;20271;-92
2023/04/13 03:31:50;;;;;;;16.57;3.43;;;;;;;9.97;47.72;98299.31;6125819;23;20152;-91
2023/04/13 03:34:17;;;;;;;4.53;1.63;;;;;;;9.90;47.96;98298.84;6126064;23;20148;-92
2023/04/13 03:36:45;;;;;;;6.07;1.93;;;;;;;9.85;48.40;98303.53;6106261;23;20218;-92
2023/04/13 03:39:11;;;;;;;5.57;1.60;;;;;;;9.86;47.93;98304.38;6126238;23;20163;-92
2023/04/13 03:41:36;;;;;;;6.27;1.80;;;;;;;9.83;48.16;98307.19;6121615;23;20179;-92
2023/04/13 03:44:03;;;;;;;5.93;1.37;;;;;;;9.92;47.73;98306.63;6125735;23;20171;-91
2023/04/13 03:46:30;;;;;;;3.17;1.10;;;;;;;9.94;47.83;98312.59;6123793;23;20211;-92
2023/04/13 03:48:56;;;;;;;1.03;0.70;;;;;;;9.93;48.08;98312.72;6125489;23;20152;-91
2023/04/13 03:51:22;;;;;;;3.73;1.00;;;;;;;9.77;48.67;98312.81;6124559;23;20151;-91
2023/04/13 03:53:49;;;;;;;2.50;0.90;;;;;;;9.75;47.78;98315.53;6123850;23;20464;-92
2023/04/13 03:56:15;;;;;;;2.93;1.20;;;;;;;9.78;47.80;98317.94;6123284;23;20237;-91
2023/04/13 03:58:42;;;;;;;2.70;1.10;;;;;;;9.87;47.81;98320.00;6125707;23;20155;-91
2023/04/13 04:01:09;;;;;;;2.93;1.13;;;;;;;9.86;47.78;98322.69;6125506;23;20175;-91
2023/04/13 04:03:38;;;;;;;5.47;1.53;;;;;;;9.60;48.92;98333.94;6124646;23;20179;-91
2023/04/13 04:06:08;;;;;;;1.67;1.03;;;;;;;9.49;48.11;98331.97;6124876;23;20168;-92
2023/04/13 04:08:36;;;;;;;2.53;1.17;;;;;;;9.24;49.52;98332.63;6126308;23;20140;-91
2023/04/13 04:11:03;;;;;;;5.60;1.80;;;;;;;9.20;49.02;98336.34;6124662;23;20298;-91
2023/04/13 04:13:36;;;;;;;5.40;1.13;;;;;;;9.11;49.45;98346.53;6123126;23;20572;-90
2023/04/13 04:16:05;;;;;;;5.47;1.90;;;;;;;9.23;49.46;98351.88;6123957;23;20230;-91
2023/04/13 04:18:32;;;;;;;5.07;1.90;;;;;;;9.18;50.16;98364.38;6124520;23;20166;-91
2023/04/13 04:21:01;;;;;;;4.80;1.63;;;;;;;9.22;50.01;98365.84;6124769;23;20214;-90
2023/04/13 04:23:36;;;;;;;2.00;1.30;;;;;;;9.18;50.63;98366.97;6125676;23;20171;-90
2023/04/13 04:26:03;;;;;;;3.40;1.10;;;;;;;9.40;50.34;98381.41;6125743;23;20128;-90
2023/04/13 04:28:38;;;;;;;4.60;1.97;;;;;;;9.48;50.95;98366.94;6126182;23;20163;-90
2023/04/13 04:31:10;;;;;;;3.80;1.33;;;;;;;10.07;49.95;98372.88;6126305;23;20132;-91
2023/04/13 04:33:37;;;;;;;7.97;2.60;;;;;;;10.93;48.87;98376.00;6124705;23;20242;-90
2023/04/13 04:36:06;;;;;;;9.70;2.47;;;;;;;11.85;46.56;98362.72;6124644;23;20180;-90
2023/04/13 04:38:33;;;;;;;9.30;3.53;;;;;;;13.17;45.14;98356.56;6127361;23;20210;-90
2023/04/13 04:41:00;;;;;;;9.60;3.40;;;;;;;14.52;42.45;98349.41;6127932;23;20159;-90
2023/04/13 04:43:29;;;;;;;9.40;4.17;;;;;;;16.31;38.83;98342.88;6127966;23;20180;-89
2023/04/13 04:45:56;;;;;;;9.47;4.10;;;;;;;17.87;36.51;98337.28;6102616;23;20165;-90
2023/04/13 04:48:25;;;;;;;6.57;2.60;;;;;;;19.10;34.20;98323.38;6128508;23;20149;-91
2023/04/13 04:50:56;;;;;;;8.83;3.37;;;;;;;20.53;33.17;98328.00;6127018;23;20155;-90
2023/04/13 04:53:23;;;;;;;4.63;1.50;;;;;;;22.24;30.14;98319.75;6101297;23;20232;-91
2023/04/13 04:55:50;;;;;;;2.87;1.23;;;;;;;23.27;28.29;98328.13;6101972;23;20215;-90
2023/04/13 04:58:18;;;;;;;4.23;1.23;;;;;;;24.58;26.52;98331.91;6127010;23;20158;-91
2023/04/13 05:00:45;;;;;;;5.43;1.90;;;;;;;25.71;25.61;98319.41;6122394;23;20238;-88
2023/04/13 05:03:11;;;;;;;3.17;1.20;;;;;;;26.50;24.34;98333.28;6127824;23;20151;-88
2023/04/13 05:05:38;;;;;;;52.87;24.47;;;;;;;27.18;23.29;98334.94;6127295;23;20207;-89
2023/04/13 05:08:04;;;;;;;61.40;27.53;;;;;;;27.98;22.43;98332.91;6127593;23;20568;-88
2023/04/13 05:10:31;;;;;;;18.03;8.00;;;;;;;28.63;21.77;98336.47;6102389;23;20156;-88
2023/04/13 05:12:58;;;;;;;10.02;3.90;;;;;;;28.65;21.80;98345.16;6100979;23;20154;-89
2023/04/13 05:15:25;;;;;;;8.05;2.42;;;;;;;28.62;21.83;98338.31;6102079;23;20195;-89
2023/04/13 05:17:52;;;;;;;7.00;2.47;;;;;;;28.24;21.82;98342.81;6101727;23;20160;-89
2023/04/13 05:20:19;;;;;;;4.78;2.10;;;;;;;27.78;22.21;98340.16;6127658;23;20148;-89
2023/04/13 05:22:45;;;;;;;4.93;1.65;;;;;;;28.07;22.18;98341.59;6101081;23;20551;-90
2023/04/13 05:25:12;;;;;;;5.25;2.00;;;;;;;28.77;21.36;98345.31;6101089;23;20194;-90
2023/04/13 05:27:38;;;;;;;4.70;1.77;;;;;;;29.14;21.04;98336.38;6099240;23;20182;-89
2023/04/13 05:30:08;;;;;;;4.32;1.60;;;;;;;28.82;21.40;98343.63;6124421;23;20218;-89
2023/04/13 05:32:34;;;;;;;8.52;2.97;;;;;;;27.96;21.95;98343.03;6124951;23;20159;-90
2023/04/13 05:34:59;;;;;;;7.15;1.88;;;;;;;27.00;23.25;98337.41;6124943;23;20152;-90
2023/04/13 05:37:27;;;;;;;4.82;1.70;;;;;;;26.11;24.30;98337.44;6126307;23;20622;-90
2023/04/13 05:39:53;;;;;;;4.35;1.92;;;;;;;25.22;24.72;98342.72;6077818;23;20225;-91
2023/04/13 05:42:19;;;;;;;4.35;2.20;;;;;;;24.57;25.75;98342.81;6101183;23;20155;-92
2023/04/13 05:44:45;;;;;;;6.82;2.67;;;;;;;24.07;26.29;98340.91;6100712;23;20579;-91
2023/04/13 05:47:11;;;;;;;7.68;3.40;;;;;;;23.63;26.85;98341.72;6100335;23;20160;-91
2023/04/13 05:49:37;;;;;;;5.27;2.43;;;;;;;23.31;26.68;98341.97;6126186;23;20148;-91
2023/04/13 05:52:06;;;;;;;6.10;2.50;;;;;;;23.25;26.84;98334.66;6125172;23;20214;-93
2023/04/13 05:54:33;;;;;;;7.83;2.50;;;;;;;23.22;27.17;98341.19;6126012;23;20223;-90
2023/04/13 05:57:02;;;;;;;10.60;2.67;;;;;;;23.09;27.45;98343.63;6100008;23;20155;-89
2023/04/13 05:59:29;;;;;;;8.10;1.47;;;;;;;22.96;27.47;98334.53;6100474;23;20485;-90
2023/04/13 06:01:56;;;;;;;4.00;1.30;;;;;;;22.70;28.04;98342.06;6125711;23;20152;-89
2023/04/13 06:04:25;;;;;;;3.87;1.40;;;;;;;22.41;28.02;98346.19;6125787;23;20176;-89
2023/04/13 06:06:51;;;;;;;5.60;1.33;;;;;;;22.39;29.36;98342.88;6100140;23;20596;-89
2023/04/13 06:09:18;;;;;;;3.80;1.00;;;;;;;22.48;29.41;98341.00;6100547;23;20162;-90
2023/04/13 06:11:44;;;;;;;5.10;1.60;;;;;;;22.67;28.63;98348.59;6100779;23;20166;-90
2023/04/13 06:14:09;;;;;;;6.90;2.13;;;;;;;22.98;29.63;98340.56;6125579;23;20159;-89
2023/04/13 06:16:40;;;;;;;4.57;2.17;;;;;;;23.18;29.34;98344.41;6125004;23;20614;-90
2023/04/13 06:19:08;;;;;;;5.20;1.90;;;;;;;23.17;28.94;98337.41;6125887;23;20167;-90
2023/04/13 06:21:35;;;;;;;5.67;1.40;;;;;;;23.38;29.29;98326.88;6099499;23;20174;-89
2023/04/13 06:24:02;;;;;;;2.67;1.20;;;;;;;23.62;29.29;98336.53;6126008;23;20195;-90
2023/04/13 06:26:34;;;;;;;2.73;1.43;;;;;;;23.75;29.38;98337.56;6124705;23;20211;-90
2023/04/13 06:29:06;;;;;;;3.20;1.23;;;;;;;23.99;29.46;98339.16;6097743;23;20159;-90
2023/04/13 06:31:32;;;;;;;5.17;1.63;;;;;;;24.25;29.11;98346.75;6099009;23;20163;-90
2023/04/13 06:33:59;;;;;;;9.33;1.93;;;;;;;24.53;29.01;98350.38;6125789;23;20590;-91
2023/04/13 06:36:26;;;;;;;9.20;3.80;;;;;;;24.87;27.10;98355.13;6100575;23;20152;-90
2023/04/13 06:38:53;;;;;;;7.27;2.97;;;;;;;24.76;25.64;98356.47;6100480;23;20231;-92
2023/04/13 06:41:19;;;;;;;5.53;2.30;;;;;;;25.17;26.64;98354.03;6100607;23;20156;-91
2023/04/13 06:43:44;;;;;;;6.97;2.90;;;;;;;25.72;25.73;98349.75;6076641;23;20218;-91
2023/04/13 06:46:13;;;;;;;4.73;2.43;;;;;;;26.08;25.97;98348.56;6101061;23;20615;-91
2023/04/13 06:48:40;;;;;;;5.63;2.20;;;;;;;26.46;25.89;98350.88;6100808;23;20172;-92
2023/04/13 06:51:08;;;;;;;14.33;3.80;;;;;;;26.88;25.77;98347.94;6126404;23;20164;-93
2023/04/13 06:53:35;;;;;;;10.63;2.80;;;;;;;27.29;24.30;98354.00;6126569;23;20234;-92
2023/04/13 06:56:01;;;;;;;4.47;2.30;;;;;;;27.68;22.89;98353.22;6101028;23;20159;-92
2023/04/13 06:58:28;;;;;;;3.53;1.40;;;;;;;27.91;22.76;98355.47;6100435;23;20238;-93
2023/04/13 07:00:53;;;;;;;3.03;0.83;;;;;;;28.05;21.64;98346.38;6100650;23;20571;-92
2023/04/13 07:03:20;;;;;;;1.73;0.60;;;;;;;27.74;21.67;98348.88;6101156;23;20152;-93
2023/04/13 07:05:46;;;;;;;1.37;0.50;;;;;;;27.84;20.66;98351.97;6100486;23;20188;-93
2023/04/13 07:08:11;;;;;;;2.10;0.50;;;;;;;27.90;18.98;98351.97;6126537;23;20226;-92
2023/04/13 07:10:39;;;;;;;4.30;0.50;;;;;;;27.72;20.15;98356.34;6100910;23;20297;-93
2023/04/13 07:13:06;;;;;;;3.42;0.57;;;;;;;27.22;19.81;98358.56;6127124;23;20175;-94
2023/04/13 07:15:36;;;;;;;6.13;0.90;;;;;;;27.10;21.64;98360.19;6101437;23;20163;-93
2023/04/13 07:18:03;;;;;;;2.87;0.50;;;;;;;27.06;20.07;98355.44;6127002;23;20219;-93
2023/04/13 07:20:30;;;;;;;1.95;0.63;;;;;;;27.11;23.65;98356.47;6102036;23;20170;-93
2023/04/13 07:22:57;;;;;;;2.73;0.50;;;;;;;27.09;20.35;98350.47;6101243;23;20483;-93
2023/04/13 07:25:24;;;;;;;1.33;0.40;;;;;;;27.06;21.70;98350.03;6101311;23;20179;-94
2023/04/13 07:27:50;;;;;;;1.45;0.38;;;;;;;26.99;21.84;98347.31;6101487;23;20159;-94
2023/04/13 07:30:17;;;;;;;1.13;0.35;;;;;;;27.02;22.14;98355.00;6101092;23;20239;-92
2023/04/13 07:32:42;;;;;;;1.13;0.50;;;;;;;26.96;22.54;98353.13;6101229;23;20163;-94
2023/04/13 07:35:08;;;;;;;4.35;0.70;;;;;;;27.00;21.44;98351.69;6101273;23;20198;-93
2023/04/13 07:37:33;;;;;;;1.40;0.40;;;;;;;26.78;22.37;98360.94;6115804;23;20503;-92
2023/04/13 07:39:59;;;;;;;4.97;1.27;;;;;;;26.51;21.06;98348.41;6130251;23;20154;-94
2023/04/13 07:42:25;;;;;;;2.67;0.88;;;;;;;26.59;22.54;98350.91;6130215;23;20151;-93
2023/04/13 07:44:54;;;;;;;4.45;0.60;;;;;;;26.34;21.74;98353.28;6130066;23;20187;-94
2023/04/13 07:47:20;;;;;;;3.67;0.40;;;;;;;26.40;22.96;98348.97;6155956;23;20162;-94
2023/04/13 07:49:46;;;;;;;1.40;0.47;;;;;;;26.39;19.51;98352.69;6129853;23;20481;-94
2023/04/13 07:52:12;;;;;;;2.17;0.57;;;;;;;26.44;22.61;98358.31;6130211;23;20155;-94
2023/04/13 07:54:38;;;;;;;2.40;0.57;;;;;;;26.56;22.26;98338.72;6130685;23;20234;-95
2023/04/13 07:57:04;;;;;;;1.02;0.50;;;;;;;26.55;21.23;98347.78;6155723;23;20151;-93
2023/04/13 07:59:31;;;;;;;2.60;0.50;;;;;;;25.48;21.33;98348.34;6130039;23;20209;-92
2023/04/13 08:01:56;;;;;;;1.45;0.40;;;;;;;24.86;23.20;98358.84;6129598;23;20163;-93
2023/04/13 08:04:22;;;;;;;1.13;0.57;;;;;;;25.20;25.24;98347.44;6155523;23;20165;-93
2023/04/13 08:06:49;;;;;;;5.00;0.50;;;;;;;25.44;24.09;98339.00;6130257;23;20187;-93
2023/04/13 08:09:14;;;;;;;1.95;0.75;;;;;;;25.64;23.69;98340.00;6155730;23;20161;-93
2023/04/13 08:11:41;;;;;;;1.70;0.82;;;;;;;25.64;23.25;98340.00;6129973;23;20237;-93
2023/04/13 08:14:08;;;;;;;2.15;0.85;;;;;;;25.83;24.12;98338.50;6109124;23;20237;-93
2023/04/13 08:16:35;;;;;;;1.87;0.60;;;;;;;25.77;26.22;98329.38;6158740;23;20164;-93
2023/04/13 08:19:03;;;;;;;1.67;0.88;;;;;;;25.64;24.74;98323.91;6157226;23;20237;-93
2023/04/13 08:21:29;;;;;;;1.20;0.60;;;;;;;25.69;26.30;98323.31;6132894;23;20161;-94
2023/04/13 08:23:58;;;;;;;1.30;0.53;;;;;;;25.49;26.35;98313.28;6131947;23;20175;-93
2023/04/13 08:26:23;;;;;;;8.40;1.10;;;;;;;25.48;25.28;98310.78;6133032;23;20190;-93
2023/04/13 08:28:53;;;;;;;4.22;0.90;;;;;;;25.40;27.03;98305.50;6132962;23;20181;-93
2023/04/13 08:31:23;;;;;;;2.28;0.82;;;;;;;25.40;27.52;98302.81;6130898;23;20159;-95
2023/04/13 08:33:48;;;;;;;5.63;2.15;;;;;;;25.45;27.20;98301.22;6128626;23;20159;-93
2023/04/13 08:36:16;;;;;;;3.92;1.60;;;;;;;25.09;26.54;98300.50;6132548;23;20151;-94
2023/04/13 08:38:43;;;;;;;2.45;0.55;;;;;;;25.33;27.35;98291.22;6126708;23;20207;-92
2023/04/13 08:41:11;;;;;;;4.60;0.90;;;;;;;24.80;26.97;98293.44;6126751;23;20156;-94
2023/04/13 08:43:45;;;;;;;1.97;0.70;;;;;;;24.59;27.91;98293.38;6118573;23;20253;-93
2023/04/13 08:46:18;;;;;;;1.90;0.80;;;;;;;24.39;28.74;98295.84;6128286;23;20626;-93
2023/04/13 08:48:45;;;;;;;1.47;0.60;;;;;;;24.56;28.32;98287.56;6127769;23;20223;-93
2023/04/13 08:51:12;;;;;;;1.73;0.83;;;;;;;24.94;28.34;98286.34;6126836;23;20171;-93
2023/04/13 08:53:40;;;;;;;3.20;0.77;;;;;;;24.88;28.80;98284.44;6126187;23;20170;-93
2023/04/13 08:56:13;;;;;;;4.20;1.00;;;;;;;25.08;28.05;98284.63;6125720;23;20616;-94
2023/04/13 08:59:02;;;;;;;2.03;0.90;;;;;;;25.25;29.01;98278.78;6103594;23;20164;-92
2023/04/13 09:01:31;;;;;;;1.30;0.50;;;;;;;25.26;26.84;98279.63;6127467;23;20239;-94
2023/04/13 09:04:09;;;;;;;1.03;0.40;;;;;;;25.34;25.61;98282.16;6125452;23;20164;-93
2023/04/13 09:06:39;;;;;;;1.23;0.50;;;;;;;25.48;26.69;98276.72;6127522;23;20607;-94
2023/04/13 09:09:14;;;;;;;1.83;0.70;;;;;;;25.64;24.50;98267.53;6128097;23;20226;-94
2023/04/13 09:11:42;;;;;;;1.30;0.32;;;;;;;25.44;24.13;98274.59;6127319;23;20226;-93
2023/04/13 09:14:09;;;;;;;3.25;0.60;;;;;;;25.43;25.84;98267.56;6126815;23;20479;-93
2023/04/13 09:16:41;;;;;;;2.53;0.70;;;;;;;25.54;24.00;98264.38;6103169;23;20483;-93
2023/04/13 09:19:12;;;;;;;1.05;0.40;;;;;;;25.49;25.42;98266.81;6103200;23;20163;-95
2023/04/13 09:21:43;;;;;;;1.48;0.50;;;;;;;25.70;24.50;98268.59;6127600;23;20235;-94
2023/04/13 09:24:10;;;;;;;1.38;0.40;;;;;;;25.84;23.25;98260.41;6126388;23;20163;-94
2023/04/13 09:26:45;;;;;;;1.85;0.55;;;;;;;25.52;23.69;98271.81;6077688;23;20234;-93
2023/04/13 09:29:17;;;;;;;3.50;0.60;;;;;;;25.80;25.15;98263.72;6126433;23;20239;-93
2023/04/13 09:31:47;;;;;;;1.50;0.50;;;;;;;25.80;22.90;98264.53;6102278;23;20159;-94
2023/04/13 09:34:27;;;;;;;1.73;0.45;;;;;;;25.95;25.14;98262.53;6126927;23;20626;-93
2023/04/13 09:36:53;;;;;;;2.17;0.50;;;;;;;26.13;25.55;98264.72;6101938;23;20207;-92
2023/04/13 09:39:26;;;;;;;1.38;0.60;;;;;;;26.46;24.65;98257.63;6126968;23;20160;-94
2023/04/13 09:41:53;;;;;;;1.83;0.45;;;;;;;26.46;23.61;98251.41;6125981;23;20160;-93
2023/04/13 09:44:23;;;;;;;1.58;0.60;;;;;;;26.47;23.48;98256.59;6126473;23;20148;-94
2023/04/13 09:46:59;;;;;;;1.52;0.52;;;;;;;26.48;23.07;98257.41;6125384;23;20176;-87
2023/04/13 09:49:25;;;;;;;2.63;0.93;;;;;;;26.33;21.45;98256.75;6125147;23;20251;-89
2023/04/13 09:51:53;;;;;;;1.60;0.52;;;;;;;26.03;22.50;98248.94;6075881;23;20174;-89
2023/04/13 09:54:23;;;;;;;1.05;0.40;;;;;;;26.46;23.17;98248.72;6126594;23;20147;-89
2023/04/13 09:56:58;;;;;;;0.88;0.40;;;;;;;26.73;24.16;98240.50;6126090;23;20271;-89
2023/04/13 09:59:26;;;;;;;1.48;0.50;;;;;;;26.74;22.78;98249.41;6126028;23;20144;-86
2023/04/13 10:01:56;;;;;;;2.30;0.60;;;;;;;26.56;22.03;98239.25;6124883;23;20162;-89
2023/04/13 10:04:23;;;;;;;1.25;0.40;;;;;;;26.77;21.09;98240.97;6120155;23;20170;-89
2023/04/13 10:06:52;;;;;;;1.35;0.55;;;;;;;27.12;23.46;98234.34;6125595;23;20180;-89
2023/04/13 10:09:20;;;;;;;1.70;0.47;;;;;;;27.11;21.05;98226.50;6124496;23;20588;-88
2023/04/13 10:11:58;;;;;;;1.17;0.28;;;;;;;27.34;20.85;98237.66;6126456;23;20148;-89
2023/04/13 10:57:01;;;;;;;3.67;0.60;;;;;;;27.83;21.83;98194.09;6159921;23;20296;-94
2023/04/13 10:59:36;;;;;;;0.68;0.43;;;;;;;27.67;21.17;98194.56;6131032;23;20170;-92
2023/04/13 11:02:05;;;;;;;1.30;0.60;;;;;;;27.79;21.08;98182.09;6129795;23;20192;-93
2023/04/13 11:04:31;;;;;;;4.85;0.63;;;;;;;27.86;21.36;98188.28;6131586;23;20567;-92
2023/04/13 11:06:56;;;;;;;0.93;0.50;;;;;;;27.97;20.90;98183.06;6131414;23;20183;-92
2023/04/13 11:09:22;;;;;;;0.73;0.40;;;;;;;27.80;22.88;98189.97;6131010;23;20645;-93
2023/04/13 11:11:51;;;;;;;0.95;0.40;;;;;;;27.91;21.12;98186.59;6130762;23;20159;-93
2023/04/13 11:14:23;;;;;;;2.70;0.55;;;;;;;27.92;22.43;98182.03;6156557;23;20147;-92
2023/04/13 11:16:52;;;;;;;3.15;0.55;;;;;;;27.96;21.46;98177.91;6131132;23;20159;-93
2023/04/13 11:19:17;;;;;;;2.13;0.30;;;;;;;28.50;22.67;98169.31;6156591;23;20214;-93
2023/04/13 11:21:59;;;;;;;1.58;0.40;;;;;;;28.60;20.34;98175.88;6156413;23;20155;-92
2023/04/13 11:24:32;;;;;;;1.20;0.50;;;;;;;28.62;20.80;98179.22;6131065;23;20298;-93
2023/04/13 11:26:58;;;;;;;0.95;0.50;;;;;;;28.68;21.21;98171.28;6130944;23;20171;-93
2023/04/13 11:29:24;;;;;;;2.22;0.60;;;;;;;28.53;18.83;98171.59;6131074;23;20241;-92
2023/04/13 11:31:50;;;;;;;0.70;0.32;;;;;;;28.29;20.08;98170.50;6129917;23;20154;-91
2023/04/13 11:34:27;;;;;;;2.08;0.60;;;;;;;28.24;20.28;98174.88;6130581;23;20159;-93
2023/04/13 11:37:01;;;;;;;1.52;0.60;;;;;;;28.32;19.77;98167.38;6130645;23;20150;-92
2023/04/13 11:39:27;;;;;;;1.33;0.50;;;;;;;28.26;19.64;98170.09;6130559;23;20147;-92
2023/04/13 11:41:53;;;;;;;2.03;0.47;;;;;;;28.44;19.99;98156.69;6130625;23;20157;-92
2023/04/13 11:44:19;;;;;;;1.05;0.50;;;;;;;28.70;20.70;98158.41;6130045;23;20155;-93
2023/04/13 11:46:45;;;;;;;1.05;0.40;;;;;;;28.97;20.76;98154.44;6155501;23;20175;-92
2023/04/13 11:49:11;;;;;;;1.85;0.40;;;;;;;29.02;20.89;98151.91;6129754;23;20171;-93
2023/04/13 11:51:37;;;;;;;1.60;0.50;;;;;;;29.23;20.26;98154.22;6129141;23;20233;-92
2023/04/13 11:54:06;;;;;;;0.75;0.40;;;;;;;29.07;20.39;98162.88;6156197;23;20151;-93
2023/04/13 11:56:32;;;;;;;2.42;0.45;;;;;;;28.93;20.20;98158.66;6129230;23;20222;-92
2023/04/13 11:58:57;;;;;;;1.00;0.40;;;;;;;28.63;20.59;98153.91;6099893;23;20179;-91
2023/04/13 12:01:25;;;;;;;1.25;0.50;;;;;;;28.88;19.34;98145.81;6100455;23;20166;-91
2023/04/13 12:03:50;;;;;;;2.05;0.77;;;;;;;28.25;21.96;98150.38;6100446;23;20170;-91
2023/04/13 12:06:16;;;;;;;1.05;0.40;;;;;;;28.08;22.49;98154.66;6099874;23;20627;-92
2023/04/13 12:08:42;;;;;;;1.42;0.50;;;;;;;28.42;21.33;98146.16;6100749;23;20230;-92
2023/04/13 12:11:09;;;;;;;1.90;0.68;;;;;;;28.51;20.47;98139.44;6126306;23;20148;-91
2023/04/13 12:13:44;;;;;;;1.67;0.65;;;;;;;28.75;21.52;98140.53;6125321;23;20175;-91
2023/04/13 12:16:11;;;;;;;1.25;0.47;;;;;;;28.94;21.59;98144.94;6101431;23;20159;-93
2023/04/13 12:18:43;;;;;;;1.13;0.40;;;;;;;28.84;21.55;98136.50;6100863;23;20587;-91
2023/04/13 12:21:14;;;;;;;0.68;0.38;;;;;;;28.58;20.21;98132.13;6100691;23;20163;-91
2023/04/13 12:23:51;;;;;;;5.53;0.60;;;;;;;28.86;20.47;98117.41;6099874;23;20160;-91